地図

経路データ

SID SEASON NUMBER BASIN SUBBASIN NAME ISO_TIME NATURE LAT LON WMO_WIND WMO_PRES WMO_AGENCY TRACK_TYPE DIST2LAND LANDFALL IFLAG USA_AGENCY USA_ATCF_ID USA_LAT USA_LON USA_RECORD USA_STATUS USA_WIND USA_PRES USA_SSHS USA_R34_NE USA_R34_SE USA_R34_SW USA_R34_NW USA_R50_NE USA_R50_SE USA_R50_SW USA_R50_NW USA_R64_NE USA_R64_SE USA_R64_SW USA_R64_NW USA_POCI USA_ROCI USA_RMW USA_EYE TOKYO_LAT TOKYO_LON TOKYO_GRADE TOKYO_WIND TOKYO_PRES TOKYO_R50_DIR TOKYO_R50_LONG TOKYO_R50_SHORT TOKYO_R30_DIR TOKYO_R30_LONG TOKYO_R30_SHORT TOKYO_LAND CMA_LAT CMA_LON CMA_CAT CMA_WIND CMA_PRES HKO_LAT HKO_LON HKO_CAT HKO_WIND HKO_PRES NEWDELHI_LAT NEWDELHI_LON NEWDELHI_GRADE NEWDELHI_WIND NEWDELHI_PRES NEWDELHI_CI NEWDELHI_DP NEWDELHI_POCI REUNION_LAT REUNION_LON REUNION_TYPE REUNION_WIND REUNION_PRES REUNION_TNUM REUNION_CI REUNION_RMW REUNION_R34_NE REUNION_R34_SE REUNION_R34_SW REUNION_R34_NW REUNION_R50_NE REUNION_R50_SE REUNION_R50_SW REUNION_R50_NW REUNION_R64_NE REUNION_R64_SE REUNION_R64_SW REUNION_R64_NW BOM_LAT BOM_LON BOM_TYPE BOM_WIND BOM_PRES BOM_TNUM BOM_CI BOM_RMW BOM_R34_NE BOM_R34_SE BOM_R34_SW BOM_R34_NW BOM_R50_NE BOM_R50_SE BOM_R50_SW BOM_R50_NW BOM_R64_NE BOM_R64_SE BOM_R64_SW BOM_R64_NW BOM_ROCI BOM_POCI BOM_EYE BOM_POS_METHOD BOM_PRES_METHOD NADI_LAT NADI_LON NADI_CAT NADI_WIND NADI_PRES WELLINGTON_LAT WELLINGTON_LON WELLINGTON_WIND WELLINGTON_PRES DS824_LAT DS824_LON DS824_STAGE DS824_WIND DS824_PRES TD9636_LAT TD9636_LON TD9636_STAGE TD9636_WIND TD9636_PRES TD9635_LAT TD9635_LON TD9635_WIND TD9635_PRES TD9635_ROCI NEUMANN_LAT NEUMANN_LON NEUMANN_CLASS NEUMANN_WIND NEUMANN_PRES MLC_LAT MLC_LON MLC_CLASS MLC_WIND MLC_PRES USA_GUST BOM_GUST BOM_GUST_PER REUNION_GUST REUNION_GUST_PER USA_SEAHGT USA_SEARAD_NE USA_SEARAD_SE USA_SEARAD_SW USA_SEARAD_NW STORM_SPEED STORM_DIR
1878202N18087 1878 9 NI BB NOT_NAMED 1878-07-21 00:00:00 TS 17.8000 86.5000 main 229 215 _________O____ -1 17.8000 86.5000 TC 30 3 298
1878202N18087 1878 9 NI BB NOT_NAMED 1878-07-21 03:00:00 TS 17.8667 86.3667 main 215 191 _________PO___ -1 17.9000 86.3000 TC 30 17.8000 86.5000 1 3 298
1878202N18087 1878 9 NI BB NOT_NAMED 1878-07-21 06:00:00 TS 17.9600 86.1813 main 191 167 _________OP___ -1 18.0000 86.1000 TC 30 17.9001 86.3033 1 4 298
1878202N18087 1878 9 NI BB NOT_NAMED 1878-07-21 09:00:00 TS 18.0572 85.9879 main 167 148 _________PP___ -1 18.1000 85.9000 TC 30 18.0001 86.1051 1 4 298
1878202N18087 1878 9 NI BB NOT_NAMED 1878-07-21 12:00:00 TS 18.1500 85.8022 main 143 125 _________OP___ -1 18.2000 85.7000 TC 30 18.1001 85.9044 1 4 298
1878202N18087 1878 9 NI BB NOT_NAMED 1878-07-21 15:00:00 TS 18.2500 85.6000 main 125 101 _________PO___ -1 18.3000 85.5000 TC 30 18.2000 85.7000 1 4 297
1878202N18087 1878 9 NI BB NOT_NAMED 1878-07-21 18:00:00 TS 18.3500 85.3959 main 95 77 _________OP___ -1 18.4000 85.3000 TC 30 18.3000 85.4918 1 4 297
1878202N18087 1878 9 NI BB NOT_NAMED 1878-07-21 21:00:00 TS 18.4500 85.1887 main 71 53 _________PP___ -1 18.5000 85.0925 TC 30 18.4000 85.2850 1 4 298
1878202N18087 1878 9 NI BB NOT_NAMED 1878-07-22 00:00:00 TS 18.5500 84.9928 main 47 30 _________OP___ -1 18.6000 84.9000 TC 30 18.5000 85.0856 1 4 300
1878202N18087 1878 9 NI BB NOT_NAMED 1878-07-22 03:00:00 TS 18.6500 84.8212 main 30 15 _________PO___ -1 18.7000 84.7425 TC 30 18.6000 84.9000 1 4 303
1878202N18087 1878 9 NI BB NOT_NAMED 1878-07-22 06:00:00 TS 18.7479 84.6678 main 15 0 _________OP___ -1 18.8000 84.6000 TC 30 18.6958 84.7355 1 3 304
1878202N18087 1878 9 NI BB NOT_NAMED 1878-07-22 09:00:00 TS 18.8424 84.5174 main 0 0 _________PP___ -1 18.8925 84.4500 TC 30 18.7924 84.5848 1 3 305
1878202N18087 1878 9 NI BB NOT_NAMED 1878-07-22 12:00:00 TS 18.9464 84.3709 main 0 0 _________OP___ -1 19.0000 84.3000 TC 30 18.8927 84.4418 1 4 310
1878202N18087 1878 9 NI BB NOT_NAMED 1878-07-22 15:00:00 TS 19.0750 84.2250 main 0 0 _________PO___ -1 19.1500 84.1500 TC 30 19.0000 84.3000 1 4 315
1878202N18087 1878 9 NI BB NOT_NAMED 1878-07-22 18:00:00 TS 19.2088 84.0891 main 0 0 _________OP___ -1 19.3000 84.0000 TC 30 19.1176 84.1782 1 4 315
1878202N18087 1878 9 NI BB NOT_NAMED 1878-07-22 21:00:00 TS 19.3210 83.9623 main 0 0 _________PP___ -1 19.3999 83.8724 TC 30 19.2421 84.0522 1 4 310
1878202N18087 1878 9 NI BB NOT_NAMED 1878-07-23 00:00:00 TS 19.4353 83.8000 main 0 0 _________OP___ -1 19.5000 83.7000 TC 30 19.3706 83.9001 1 5 304
1878202N18087 1878 9 NI BB NOT_NAMED 1878-07-23 03:00:00 TS 19.5750 83.5650 main 0 0 _________PO___ -1 19.6500 83.4301 TC 30 19.5000 83.7000 1 6 298
1878202N18087 1878 9 NI BB NOT_NAMED 1878-07-23 06:00:00 TS 19.7106 83.2606 main 0 0 _________OP___ -1 19.8000 83.1000 TC 30 19.6212 83.4212 1 6 292
1878202N18087 1878 9 NI BB NOT_NAMED 1878-07-23 09:00:00 TS 19.8176 82.9299 main 0 0 _________PP___ -1 19.8924 82.7648 TC 30 19.7428 83.0950 1 7 289
1878202N18087 1878 9 NI BB NOT_NAMED 1878-07-23 12:00:00 TS 19.9340 82.5731 main 0 0 _________OP___ -1 20.0000 82.4000 TC 30 19.8680 82.7462 1 8 292
1878202N18087 1878 9 NI BB NOT_NAMED 1878-07-23 15:00:00 TS 20.1001 82.1889 main 0 0 _________PO___ -1 20.2001 81.9777 TC 30 20.0000 82.4000 1 8 296
1878202N18087 1878 9 NI BB NOT_NAMED 1878-07-23 18:00:00 TS 20.2837 81.8222 main 0 0 _________OP___ -1 20.4000 81.6000 TC 30 20.1674 82.0444 1 7 298
1878202N18087 1878 9 NI BB NOT_NAMED 1878-07-23 21:00:00 TS 20.4338 81.5215 main 0 0 _________PP___ -1 20.5299 81.3399 TC 30 20.3378 81.7030 1 6 298
1878202N18087 1878 9 NI BB NOT_NAMED 1878-07-24 00:00:00 TS 20.5446 81.3050 main 0 0 _________OP___ -1 20.6000 81.2000 TC 30 20.4893 81.4100 1 4 299
1878202N18087 1878 9 NI BB NOT_NAMED 1878-07-24 03:00:00 TS 20.6075 81.1850 main 0 0 _________PO___ -1 20.6150 81.1700 TC 30 20.6000 81.2000 1 2 299
1878202N18087 1878 9 NI BB NOT_NAMED 1878-07-24 06:00:00 TS 20.6214 81.1567 main 0 0 _________OP___ -1 20.6000 81.2000 TC 30 20.6428 81.1134 1 0 292
1878202N18087 1878 9 NI BB NOT_NAMED 1878-07-24 09:00:00 TS 20.6223 81.1548 main 0 0 _________PP___ -1 20.6000 81.2000 TC 30 20.6447 81.1096 1 0 0
1878202N18087 1878 9 NI BB NOT_NAMED 1878-07-24 12:00:00 TS 20.6121 81.1755 main 0 0 _________OP___ -1 20.6000 81.2000 TC 30 20.6242 81.1511 1 0 124
1878202N18087 1878 9 NI BB NOT_NAMED 1878-07-24 15:00:00 TS 20.6000 81.2000 main 0 0 _________PO___ -1 20.6000 81.2000 TC 30 20.6000 81.2000 1 0 0
1878202N18087 1878 9 NI BB NOT_NAMED 1878-07-24 18:00:00 TS 20.6000 81.2000 main 0 0 _________OP___ -1 20.6000 81.2000 TC 30 20.6000 81.2000 1 0 0
1878202N18087 1878 9 NI BB NOT_NAMED 1878-07-24 21:00:00 TS 20.6000 81.2000 main 0 0 _________PP___ -1 20.6000 81.2000 TC 30 20.6000 81.2000 1 0 0
1878202N18087 1878 9 NI BB NOT_NAMED 1878-07-25 00:00:00 TS 20.6000 81.2000 main 0 0 _________OP___ -1 20.6000 81.2000 TC 30 20.6000 81.2000 1 0 0
1878202N18087 1878 9 NI BB NOT_NAMED 1878-07-25 03:00:00 TS 20.6000 81.2000 main 0 0 _________PO___ -1 20.6000 81.2000 TC 30 20.6000 81.2000 1 0 0
1878202N18087 1878 9 NI BB NOT_NAMED 1878-07-25 06:00:00 TS 20.6000 81.2000 main 0 0 _________OP___ -1 20.6000 81.2000 TC 30 20.6000 81.2000 1 0 0
1878202N18087 1878 9 NI BB NOT_NAMED 1878-07-25 09:00:00 TS 20.6000 81.2000 main 0 0 _________PP___ -1 20.6000 81.2000 TC 30 20.6000 81.2000 1 0 0
1878202N18087 1878 9 NI BB NOT_NAMED 1878-07-25 12:00:00 TS 20.6000 81.2000 main 0 0 _________OP___ -1 20.6000 81.2000 TC 30 20.6000 81.2000 1 0 0
1878202N18087 1878 9 NI BB NOT_NAMED 1878-07-25 15:00:00 TS 20.6000 81.2000 main 0 0 _________PO___ -1 20.6000 81.2000 TC 30 20.6000 81.2000 1 0 0
1878202N18087 1878 9 NI BB NOT_NAMED 1878-07-25 18:00:00 TS 20.6000 81.2000 main 0 0 _________OP___ -1 20.6000 81.2000 TC 30 20.6000 81.2000 1 0 0
1878202N18087 1878 9 NI BB NOT_NAMED 1878-07-25 21:00:00 TS 20.6000 81.2000 main 0 0 _________PP___ -1 20.6000 81.2000 TC 30 20.6000 81.2000 1 0 0
1878202N18087 1878 9 NI BB NOT_NAMED 1878-07-26 00:00:00 TS 20.6000 81.2000 main 0 0 _________OP___ -1 20.6000 81.2000 TC 30 20.6000 81.2000 1 0 0
1878202N18087 1878 9 NI BB NOT_NAMED 1878-07-26 03:00:00 TS 20.6000 81.2000 main 0 0 _________PO___ -1 20.6000 81.2000 TC 30 20.6000 81.2000 1 0 0
1878202N18087 1878 9 NI BB NOT_NAMED 1878-07-26 06:00:00 TS 20.6000 81.2000 main 0 0 _________OP___ -1 20.6000 81.2000 TC 30 20.6000 81.2000 1 0 0
1878202N18087 1878 9 NI BB NOT_NAMED 1878-07-26 09:00:00 TS 20.6000 81.2000 main 0 0 _________PP___ -1 20.6000 81.2000 TC 30 20.6000 81.2000 1 0 0
1878202N18087 1878 9 NI BB NOT_NAMED 1878-07-26 12:00:00 TS 20.6000 81.2000 main 0 0 _________OP___ -1 20.6000 81.2000 TC 30 20.6000 81.2000 1 0 0
1878202N18087 1878 9 NI BB NOT_NAMED 1878-07-26 15:00:00 TS 20.6000 81.2000 main 0 0 _________PO___ -1 20.6000 81.2000 TC 30 20.6000 81.2000 1 1 169
1878202N18087 1878 9 NI BB NOT_NAMED 1878-07-26 18:00:00 TS 20.5452 81.2080 main 0 0 _________OP___ -1 20.6000 81.2000 TC 30 20.4903 81.2159 1 1 0
1878202N18087 1878 9 NI BB NOT_NAMED 1878-07-26 21:00:00 TS 20.4613 81.2221 main 0 0 _________PP___ -1 20.5250 81.2149 TC 30 20.3975 81.2294 1 0 0
1878202N18087 1878 9 NI BB NOT_NAMED 1878-07-27 00:00:00 TS 20.5030 81.2141 main 0 0 _________OP___ -1 20.6000 81.2000 TC 30 20.4060 81.2282 1 3 351
1878202N18087 1878 9 NI BB NOT_NAMED 1878-07-27 03:00:00 TS 20.7863 81.1575 main 0 0 _________PO___ -1 20.9725 81.1150 TC 30 20.6000 81.2000 1 9 352
1878202N18087 1878 9 NI BB NOT_NAMED 1878-07-27 06:00:00 TS 21.3605 81.0943 main 0 0 _________OP___ -1 21.6000 81.0000 TC 30 21.1211 81.1886 1 14 355
1878202N18087 1878 9 NI BB NOT_NAMED 1878-07-27 09:00:00 TS 22.1321 81.0389 main 0 0 _________PP___ -1 22.4424 80.9370 TC 30 21.8217 81.1408 1 16 354
1878202N18087 1878 9 NI BB NOT_NAMED 1878-07-27 12:00:00 TS 22.9433 80.9114 main 0 0 _________OP___ -1 23.3000 80.8000 TC 30 22.5865 81.0228 1 15 347
1878202N18087 1878 9 NI BB NOT_NAMED 1878-07-27 15:00:00 TS 23.6161 80.6625 main 0 0 _________PO___ -1 23.9322 80.5250 TC 30 23.3000 80.8000 1 13 334
1878202N18087 1878 9 NI BB NOT_NAMED 1878-07-27 18:00:00 TS 24.1271 80.2694 main 0 0 _________OP___ -1 24.4000 80.1000 TC 30 23.8542 80.4388 1 13 318
1878202N18087 1878 9 NI BB NOT_NAMED 1878-07-27 21:00:00 TS 24.5492 79.7477 main 0 0 _________PP___ -1 24.7678 79.5226 TC 30 24.3306 79.9727 1 12 306
1878202N18087 1878 9 NI BB NOT_NAMED 1878-07-28 00:00:00 TS 24.8583 79.1725 main 0 0 _________OP___ -1 25.0000 78.9000 TC 30 24.7166 79.4450 1 11 297
1878202N18087 1878 9 NI BB NOT_NAMED 1878-07-28 03:00:00 TS 25.0686 78.6423 main 0 0 _________PO___ -1 25.1372 78.3846 TC 30 25.0000 78.9000 1 10 290
1878202N18087 1878 9 NI BB NOT_NAMED 1878-07-28 06:00:00 TS 25.1875 78.1546 main 0 0 _________OP___ -1 25.2000 77.9000 TC 30 25.1751 78.4092 1 9 282
1878202N18087 1878 9 NI AS NOT_NAMED 1878-07-28 09:00:00 TS 25.2558 77.6599 main 0 0 _________PP___ -1 25.2573 77.4074 TC 30 25.2543 77.9124 1 9 277
1878202N18087 1878 9 NI AS NOT_NAMED 1878-07-28 12:00:00 TS 25.2907 77.1548 main 0 0 _________OP___ -1 25.3000 76.9000 TC 30 25.2813 77.4095 1 9 274
1878202N18087 1878 9 NI AS NOT_NAMED 1878-07-28 15:00:00 TS 25.3212 76.6249 main 0 0 _________PO___ -1 25.3425 76.3499 TC 30 25.3000 76.9000 1 10 275
1878202N18087 1878 9 NI AS NOT_NAMED 1878-07-28 18:00:00 TS 25.3833 76.0889 main 0 0 _________OP___ -1 25.4000 75.8000 TC 30 25.3665 76.3777 1 10 278
1878202N18087 1878 9 NI AS NOT_NAMED 1878-07-28 21:00:00 TS 25.4634 75.5710 main 0 0 _________PP___ -1 25.4923 75.2925 TC 30 25.4346 75.8494 1 9 280
1878202N18087 1878 9 NI AS NOT_NAMED 1878-07-29 00:00:00 TS 25.5551 75.0607 main 0 0 _________OP___ -1 25.6000 74.8000 TC 30 25.5103 75.3214 1 9 281
1878202N18087 1878 9 NI AS NOT_NAMED 1878-07-29 03:00:00 TS 25.6462 74.5499 main 0 0 _________PO___ -1 25.6923 74.2998 TC 30 25.6000 74.8000 1 9 282
1878202N18087 1878 9 NI AS NOT_NAMED 1878-07-29 06:00:00 TS 25.7530 74.0463 main 0 0 _________OP___ -1 25.8000 73.8000 TC 30 25.7059 74.2927 1 9 285
1878202N18087 1878 9 NI AS NOT_NAMED 1878-07-29 09:00:00 TS 25.8845 73.5461 main 0 0 _________PP___ -1 25.9423 73.3000 TC 30 25.8267 73.7922 1 9 287
1878202N18087 1878 9 NI AS NOT_NAMED 1878-07-29 12:00:00 TS 26.0295 73.0478 main 0 0 _________OP___ -1 26.1000 72.8000 TC 30 25.9591 73.2957 1 9 288
1878202N18087 1878 9 NI AS NOT_NAMED 1878-07-29 15:00:00 TS 26.1749 72.5499 main 0 0 _________PO___ -1 26.2498 72.2999 TC 30 26.1000 72.8000 1 9 288
1878202N18087 1878 9 NI AS NOT_NAMED 1878-07-29 18:00:00 TS 26.3123 72.0873 main 0 0 _________OP___ -1 26.4000 71.8000 TC 30 26.2465 72.3028 1 9 288
1878202N18087 1878 9 NI AS NOT_NAMED 1878-07-29 21:00:00 TS 26.4580 71.6022 main 0 0 _________PP___ -1 26.5503 71.3003 TC 30 26.3965 71.8036 1 9 289
1878202N18087 1878 9 NI AS NOT_NAMED 1878-07-30 00:00:00 TS 26.5988 71.1350 main 0 0 _________OP___ -1 26.7000 70.8000 TC 30 26.5482 71.3026 1 8 289
1878202N18087 1878 9 NI AS NOT_NAMED 1878-07-30 03:00:00 NR 26.7000 70.8000 main 0 __________O___ -1 TC 26.7000 70.8000 1 6 289

IBTrACS Databaseについて

本データベースは、米国NOAAが公開する1842年以降の世界の熱帯低気圧のベストトラックデータアーカイブInternational Best Track Archive for Climate Stewardship (IBTrACS)を、ウェブで閲覧しやすい形式に変換したものです。

最終更新日:2021-11-26